• Join FlightAware (Why Join?)
  • Login
  • US Flag 
03:57AM EDT


 

Airport Tracker/Info


-or-


 

Live Flight TrackerFlight Track Log ✈ ASQ5958 ✈ 30-Apr-2013 ✈ KTYS - KIAD

Flight Track Log - Related Links

Times and Time Zones

All times are in EDT time to prevent confusion due to time zone crossing. See the ASQ5958 flight status page for this flight to view local times or setup timezone preferences in your user account.

Time Position Orientation Groundspeed Altitude Reporting Facility
EDT Latitude Longitude Course Direction KTS MPH feet Rate Location/Type
08:01PM 35.8372 -83.9567 27° Northeast 173 199 2,700  Level Atlanta Center
08:02PM 35.8831 -83.9158 36° Northeast 181 208 5,200 2,280 Climbing Atlanta Center
08:03PM 36.1558 -83.7184 28° Northeast  Level FlightAware Approximate
08:03PM 35.9456 -83.8719 30° Northeast 222 255 7,300  Level Atlanta Center
08:04PM 36.2482 -83.6568 28° Northeast  Level FlightAware Approximate
08:04PM 36.0164 -83.8256 28° Northeast 257 296 9,900  Level Atlanta Center
08:05PM 36.3411 -83.5963 27° Northeast  Level FlightAware Approximate
08:05PM 36.0933 -83.7792 26° Northeast 281 323 11,200  Level Atlanta Center
08:06PM 36.4343 -83.5364 27° Northeast  Level FlightAware Approximate
08:06PM 36.1831 -83.7197 28° Northeast 319 367 12,000  Level Atlanta Center
08:07PM 36.2664 -83.6653 28° Northeast 356 410 13,700 1,740 Climbing Atlanta Center
08:08PM 36.4336 -83.5594 27° Northeast 364 419 17,000 1,560 Climbing Indianapolis Center
08:10PM 36.4972 -83.4586 52° Northeast 366 421 18,300 960 Climbing Indianapolis Center
08:11PM 36.5711 -83.3303 54° Northeast 389 448 19,000 300 Climbing Indianapolis Center
08:12PM 36.6372 -83.2125 55° Northeast 413 475 19,000 240 Level Indianapolis Center
08:13PM 36.7031 -83.0944 55° Northeast 414 476 19,500 840 Climbing Indianapolis Center
08:14PM 36.7683 -82.9789 55° Northeast 409 471 20,800 1,260 Climbing Indianapolis Center
08:15PM 36.8311 -82.8633 56° Northeast 409 471 22,100 1,020 Climbing Indianapolis Center
08:16PM 36.9075 -82.7281 55° Northeast 420 483 23,000 960 Climbing Indianapolis Center
08:17PM 36.9739 -82.6094 55° Northeast 420 483 24,200 1,140 Climbing Indianapolis Center
08:18PM 37.0406 -82.4911 55° Northeast 416 479 25,400 1,140 Climbing Indianapolis Center
08:19PM 37.1050 -82.3733 56° Northeast 411 473 26,600 1,140 Climbing Indianapolis Center
08:20PM 37.1708 -82.2564 55° Northeast 410 472 27,800 1,140 Climbing Indianapolis Center
08:21PM 37.2339 -82.1400 56° Northeast 404 465 29,000 1,260 Climbing Indianapolis Center
08:22PM 37.3044 -82.0014 57° Northeast 404 465 30,500 960 Climbing Indianapolis Center
08:23PM 37.3486 -81.8653 68° East 418 481 31,000 240 Climbing Indianapolis Center
08:24PM 37.4117 -81.7325 59° Northeast 439 505 31,000  Level Indianapolis Center
08:25PM 37.4889 -81.6092 52° Northeast 444 511 31,000  Level Indianapolis Center
08:26PM 37.5611 -81.4925 52° Northeast 434 499 31,000  Level Indianapolis Center
08:27PM 37.6314 -81.3767 53° Northeast 428 493 31,000  Level Indianapolis Center
08:28PM 37.7136 -81.2364 53° Northeast 426 490 31,000  Level Indianapolis Center
08:29PM 37.7556 -81.1683 52° Northeast 427 491 31,000  Level Washington Center
08:30PM 37.8119 -81.0358 62° Northeast 421 484 31,000  Level Washington Center
08:31PM 37.8667 -80.8844 65° Northeast 419 482 31,000  Level Washington Center
08:32PM 37.9142 -80.7483 66° East 419 482 31,000  Level Washington Center
08:33PM 37.9758 -80.6236 58° Northeast 419 482 31,000  Level Washington Center
08:34PM 38.0475 -80.5069 52° Northeast 412 474 31,000  Level Washington Center
08:35PM 38.1100 -80.4056 52° Northeast 412 474 31,000  Level Washington Center
08:36PM 38.1794 -80.2886 53° Northeast 412 474 31,000 -120 Level Washington Center
08:37PM 38.2483 -80.1764 52° Northeast 407 468 30,800 -600 Descending Washington Center
08:38PM 38.3114 -80.0533 57° Northeast 407 468 29,900 -900 Descending Washington Center
08:39PM 38.3764 -79.9328 55° Northeast 407 468 29,000 -1,200 Descending Washington Center
08:40PM 38.4419 -79.7908 59° Northeast 415 478 27,600 -1,440 Descending Washington Center
08:41PM 38.4783 -79.6389 73° East 427 491 26,200 -1,560 Descending Washington Center
08:42PM 38.5125 -79.4894 74° East 433 498 24,600 -1,140 Descending Washington Center
08:43PM 38.5422 -79.3397 76° East 438 504 24,000 -720 Descending Washington Center
08:44PM 38.5672 -79.2031 77° East 430 495 23,200 -1,500 Descending Washington Center
08:45PM 38.5886 -79.0500 80° East 435 501 21,000 -2,100 Descending Washington Center
08:46PM 38.6136 -78.9022 78° East 429 494 19,100 -1,620 Descending Washington Center
08:47PM 38.6400 -78.7681 76° East 408 470 17,800 -2,040 Descending Washington Center
08:48PM 38.6728 -78.6336 73° East 395 455 15,100 -2,880 Descending Washington Center
08:49PM 38.7031 -78.5072 73° East 382 440 12,100 -2,040 Descending Washington Center
08:50PM 38.7264 -78.3992 74° East 347 399 11,000 -1,020 Descending Washington Center
08:51PM 38.7719 -78.3208 53° Northeast 293 337 10,100 -1,200 Descending Washington Center
08:52PM 38.8353 -78.2833 25° Northeast 254 292 8,700 -1,200 Descending Washington Center
08:53PM 38.9028 -78.2511 20° North 243 280 7,700 -1,020 Descending Washington Center
08:54PM 38.9172 -78.1608 78° East 229 264 6,700 -900 Descending Washington Center
08:55PM 38.9275 -78.0706 82° East 229 264 6,000 -360 Descending Washington Center
08:56PM 38.9375 -77.9828 82° East 242 278 6,000  Level Washington Center
08:57PM 38.9500 -77.8817 81° East 247 284 6,000  Level Washington Center
08:59PM 38.9667 -77.7000 83° East 259 298 6,000  Level Potomac TRACON
09:00PM 38.9667 -77.6167 90° East 260 299 6,000  Level Potomac TRACON
09:01PM 39.0333 -77.5667 30° Northeast 263 303 6,000 -480 Level Potomac TRACON
09:02PM 39.1000 -77.5667 360° North 237 273 5,100 -900 Descending Potomac TRACON
09:03PM 39.1500 -77.5667 360° North 228 262 4,300 -780 Descending Potomac TRACON
09:04PM 39.1667 -77.5000 72° East 159 183 3,700 -660 Descending Potomac TRACON
09:05PM 39.1500 -77.4667 123° Southeast 161 185 3,000 -420 Descending Potomac TRACON
09:06PM 39.1000 -77.4500 165° South 176 203 2,900 -540 Descending Potomac TRACON
09:07PM 39.0667 -77.4500 180° South 169 194 2,000 -1,020 Descending Potomac TRACON